Domov               UVHVVR             MKGP            O straneh              
ZDRAVSTVENO VARSTVO RASTLIN
  MREŽA AGROMET. POSTAJ
 ► PROGNOSTIČNA OBVESTILA
AGROMETEOROLOŠKI PODATKI -
ARSO
OBVLADOVANJE TVEGANJ ZARADI
NEUGODNIH VREMENSKIH RAZMER
  ► NARAVNE NESREČE
  ► SUŠA/MOČA
  ► NAMAKANJE
  ► ŽLED (gozdarstvo)
KARTOGRAFSKI PRIKAZI
SPLETNE POVEZAVE
PROJEKTI IN PUBLIKACIJE

AGROMETEOROLOŠKA MREŽA: VREMENSKE POSTAJE IN FENOLOŠKA OPAZOVANJA

Pregled podatkov za lokacijo Slom, meteorološka postaja 42786

Pregled senzorjev na lokaciji

ID Ime Zadnja
vrednost
Datum
zadnje
spremembe
Tip
senzorja
2126 Temperatura 2 m ( °C) 15,3 °C 19.8.2017 03:00 50YA
2127 Relativna vlaga 2 m (% RH) 99,21 % RH 19.8.2017 03:00 50YA
2128 Omočenost lista (U) 10 U 19.8.2017 03:00 A730WET
2129 Padavine 0.2 mm (mm) 0 mm 19.8.2017 03:00 Rain-O-Matic

Pregled podatkov zadnjih 24 ur

Zap.
št.
Datum in čas Slom
Omočenost
lista
Padavine
0.2
mm
Relativna
vlaga
2
m
Temperatura
2
m
0 19.8.2017 02:00 10 0 99,21 15,3
1 19.8.2017 01:30 10 0 99,08 15,57
2 19.8.2017 01:00 9 0 98,82 15,89
3 19.8.2017 00:30 9 0 98,41 16,24
4 19.8.2017 00:00 9 0 97,99 16,54
5 18.8.2017 23:30 9 0 97,57 16,94
6 18.8.2017 23:00 9 0 97,92 17,11
7 18.8.2017 22:30 9 0 97,76 17,38
8 18.8.2017 22:00 8 0 97,05 17,82
9 18.8.2017 21:30 6 0 96,39 18,21
10 18.8.2017 21:00 0 0 93,01 18,94
11 18.8.2017 20:30 0 0 90,53 19,73
12 18.8.2017 20:00 0 0 86,79 20,61
13 18.8.2017 19:30 0 0 80,45 22,01
14 18.8.2017 19:00 0 0 67,17 24,71
15 18.8.2017 18:30 0 0 48,42 28,77
16 18.8.2017 18:00 0 0 43,34 31
17 18.8.2017 17:30 0 0 40,23 32,3
18 18.8.2017 17:00 0 0 38,07 32,15
19 18.8.2017 16:30 0 0 37,6 32,36
20 18.8.2017 16:00 0 0 37,84 32,24
21 18.8.2017 15:30 0 0 37,19 32,43
22 18.8.2017 15:00 0 0 39,7 32,34
23 18.8.2017 14:30 0 0 40,22 31,92
24 18.8.2017 14:00 0 0 40,61 32
25 18.8.2017 13:30 0 0 40,94 31,7
26 18.8.2017 13:00 0 0 40,83 31,32
27 18.8.2017 12:30 0 0 43,96 31,54
28 18.8.2017 12:00 0 0 50,98 30,56
29 18.8.2017 11:30 0 0 54,14 29,78
30 18.8.2017 11:00 0 0 53,61 29,22
31 18.8.2017 10:30 0 0 53,71 28,82
32 18.8.2017 10:00 0 0 60,11 26,92
33 18.8.2017 09:30 0 0 65,57 25,22
34 18.8.2017 09:00 0 0 70,25 23,69
35 18.8.2017 08:30 0 0 73,12 22,54
36 18.8.2017 08:00 7 0 76,69 21,5
37 18.8.2017 07:30 10 0 85,72 19,71
38 18.8.2017 07:00 10 0 99,16 17,48
39 18.8.2017 06:30 10 0 100 15,6
40 18.8.2017 06:00 9 0 100 14,57
41 18.8.2017 05:30 8 0 99,98 14,27
42 18.8.2017 05:00 5 0 100 14,57
43 18.8.2017 04:30 4 0 99,98 14,51
44 18.8.2017 04:00 3 0 99,9 14,64
© 2011 Ministrstvo za kmetijstvo, gozdarstvo in prehrano. Vse pravice pridržane.